createdAt,value
2023-04-16T00:02:03.440Z,6.90
2023-04-16T00:04:30.611Z,7.00
2023-04-16T00:06:57.551Z,6.90
2023-04-16T00:09:24.459Z,6.90
2023-04-16T00:11:51.392Z,6.90
2023-04-16T00:14:18.299Z,6.90
2023-04-16T00:16:45.268Z,6.80
2023-04-16T00:19:12.367Z,6.80
2023-04-16T00:21:39.214Z,6.80
2023-04-16T00:24:06.076Z,6.80
2023-04-16T00:26:32.955Z,6.80
2023-04-16T00:28:59.989Z,6.80
2023-04-16T00:31:28.466Z,6.80
2023-04-16T00:36:27.463Z,6.70
2023-04-16T00:38:55.606Z,6.70
2023-04-16T00:41:26.377Z,6.80
2023-04-16T00:43:53.497Z,6.80
2023-04-16T00:46:23.000Z,6.90
2023-04-16T00:48:52.200Z,6.90
2023-04-16T00:51:20.621Z,6.90
2023-04-16T00:53:47.622Z,6.90
2023-04-16T00:56:14.903Z,6.90
2023-04-16T00:58:41.767Z,7.00
2023-04-16T01:01:08.724Z,7.00
2023-04-16T01:03:49.692Z,7.00
2023-04-16T01:06:18.213Z,7.00
2023-04-16T01:08:48.057Z,6.90
2023-04-16T01:11:15.738Z,7.00
2023-04-16T01:13:42.724Z,7.00
2023-04-16T01:16:11.420Z,6.90
2023-04-16T01:18:39.310Z,6.90
2023-04-16T01:21:06.767Z,6.90
2023-04-16T01:23:33.907Z,6.90
2023-04-16T01:26:00.956Z,6.80
2023-04-16T01:28:27.833Z,6.80
2023-04-16T01:30:54.921Z,6.80
2023-04-16T01:33:21.856Z,6.80
2023-04-16T01:35:48.821Z,6.80
2023-04-16T01:38:15.730Z,6.80
2023-04-16T01:40:42.738Z,6.90
2023-04-16T01:43:09.560Z,6.90
2023-04-16T01:45:36.434Z,6.90
2023-04-16T01:48:04.199Z,6.90
2023-04-16T01:50:31.694Z,6.90
2023-04-16T01:52:58.579Z,6.90
2023-04-16T01:55:25.584Z,6.90
2023-04-16T01:57:52.404Z,6.90
2023-04-16T02:00:19.352Z,6.90
2023-04-16T02:02:46.765Z,6.80
2023-04-16T02:05:13.756Z,6.80
2023-04-16T02:07:40.778Z,6.80
2023-04-16T02:10:10.361Z,6.80
2023-04-16T02:12:37.489Z,6.80
2023-04-16T02:15:05.072Z,6.80
2023-04-16T02:17:32.138Z,6.80
2023-04-16T02:19:59.070Z,6.70
2023-04-16T02:22:25.908Z,6.80
2023-04-16T02:24:52.715Z,6.80
2023-04-16T02:27:19.550Z,6.70
2023-04-16T02:29:46.462Z,6.70
2023-04-16T02:32:13.419Z,6.70
2023-04-16T02:34:40.445Z,6.80
2023-04-16T02:37:07.289Z,6.70
2023-04-16T02:39:34.265Z,6.70
2023-04-16T02:42:02.550Z,6.80
2023-04-16T02:44:29.443Z,6.70
2023-04-16T02:46:56.288Z,6.80
2023-04-16T02:49:23.207Z,6.70
2023-04-16T02:51:50.313Z,6.70
2023-04-16T02:54:17.186Z,6.70
2023-04-16T02:56:44.071Z,6.70
2023-04-16T02:59:11.159Z,6.70
2023-04-16T03:01:38.274Z,6.70
2023-04-16T03:04:05.509Z,6.70
2023-04-16T03:06:32.792Z,6.70
2023-04-16T03:08:59.660Z,6.70
2023-04-16T03:11:26.569Z,6.60
2023-04-16T03:13:53.900Z,6.60
2023-04-16T03:16:20.774Z,6.50
2023-04-16T03:18:47.738Z,6.50
2023-04-16T03:21:14.567Z,6.50
2023-04-16T03:23:41.489Z,6.50
2023-04-16T03:26:08.410Z,6.40
2023-04-16T03:28:35.435Z,6.40
2023-04-16T03:31:02.393Z,6.50
2023-04-16T03:33:29.386Z,6.40
2023-04-16T03:35:59.456Z,6.40
2023-04-16T03:38:26.727Z,6.40
2023-04-16T03:40:53.689Z,6.40
2023-04-16T03:43:20.673Z,6.40
2023-04-16T03:45:48.007Z,6.40
2023-04-16T03:48:14.895Z,6.40
2023-04-16T03:50:47.003Z,6.30
2023-04-16T03:53:14.637Z,6.30
2023-04-16T03:55:42.574Z,6.30
2023-04-16T03:58:09.886Z,6.20
2023-04-16T04:00:36.892Z,6.20
2023-04-16T04:03:04.176Z,6.20
2023-04-16T04:05:31.213Z,6.20
2023-04-16T04:07:58.072Z,6.20
2023-04-16T04:10:24.914Z,6.20
2023-04-16T04:12:51.734Z,6.20
2023-04-16T04:15:18.631Z,6.20
2023-04-16T04:17:46.181Z,6.20
2023-04-16T04:20:13.179Z,6.30
2023-04-16T04:22:40.154Z,6.30
2023-04-16T04:25:08.606Z,6.30
2023-04-16T04:27:35.604Z,6.20
2023-04-16T04:30:04.529Z,6.20
2023-04-16T04:32:31.690Z,6.10
2023-04-16T04:35:01.718Z,6.20
2023-04-16T04:37:29.093Z,6.10
2023-04-16T04:39:55.981Z,6.10
2023-04-16T04:42:22.981Z,6.10
2023-04-16T04:44:49.861Z,6.10
2023-04-16T04:47:16.768Z,6.10
2023-04-16T04:49:43.646Z,6.20
2023-04-16T04:52:11.592Z,6.10
2023-04-16T04:54:41.667Z,6.10
2023-04-16T04:57:08.777Z,6.00
2023-04-16T04:59:35.861Z,6.00
2023-04-16T05:02:03.566Z,6.00
2023-04-16T05:04:31.431Z,6.00
2023-04-16T05:06:58.323Z,5.90
2023-04-16T05:09:25.403Z,5.90
2023-04-16T05:11:52.644Z,5.90
2023-04-16T05:14:19.527Z,6.00
2023-04-16T05:16:46.408Z,6.00
2023-04-16T05:19:13.284Z,5.90
2023-04-16T05:21:40.347Z,5.90
2023-04-16T05:24:07.274Z,5.90
2023-04-16T05:26:34.104Z,5.90
2023-04-16T05:29:01.064Z,6.00
2023-04-16T05:31:27.947Z,6.00
2023-04-16T05:33:54.816Z,6.00
2023-04-16T05:36:21.691Z,6.00
2023-04-16T05:38:48.698Z,5.90
2023-04-16T05:41:15.652Z,5.90
2023-04-16T05:43:42.515Z,6.00
2023-04-16T05:46:09.399Z,5.90
2023-04-16T05:48:36.322Z,6.00
2023-04-16T05:51:03.303Z,6.00
2023-04-16T05:53:30.310Z,6.00
2023-04-16T05:55:57.182Z,6.10
2023-04-16T05:58:24.048Z,6.10
2023-04-16T06:00:51.394Z,6.10
2023-04-16T06:03:18.438Z,6.20
2023-04-16T06:05:45.633Z,6.10
2023-04-16T06:08:12.650Z,6.10
2023-04-16T06:10:39.787Z,6.10
2023-04-16T06:13:06.671Z,6.20
2023-04-16T06:15:33.620Z,6.20
2023-04-16T06:18:01.098Z,6.20
2023-04-16T06:20:28.323Z,6.20
2023-04-16T06:22:56.633Z,6.20
2023-04-16T06:25:23.759Z,6.10
2023-04-16T06:27:50.656Z,6.10
2023-04-16T06:30:17.639Z,6.10
2023-04-16T06:32:44.722Z,6.10
2023-04-16T06:35:11.650Z,6.10
2023-04-16T06:40:06.735Z,6.20
2023-04-16T06:42:33.609Z,6.20
2023-04-16T06:45:00.733Z,6.20
2023-04-16T06:47:27.678Z,6.20
2023-04-16T06:49:54.619Z,6.20
2023-04-16T06:54:48.942Z,6.20
2023-04-16T06:57:16.390Z,6.10
2023-04-16T06:59:43.288Z,6.10
2023-04-16T07:02:10.983Z,6.10
2023-04-16T07:04:38.000Z,6.10
2023-04-16T07:07:04.852Z,6.20
2023-04-16T07:09:31.725Z,6.20
2023-04-16T07:11:58.691Z,6.20
2023-04-16T07:14:25.690Z,6.10
2023-04-16T07:16:52.760Z,6.10
2023-04-16T07:19:19.794Z,6.10
2023-04-16T07:26:41.570Z,6.20
2023-04-16T07:29:08.727Z,6.20
2023-04-16T07:31:36.026Z,6.20
2023-04-16T07:34:03.035Z,6.20
2023-04-16T07:36:29.935Z,6.10
2023-04-16T07:38:56.849Z,6.10
2023-04-16T07:41:24.052Z,6.20
2023-04-16T07:43:51.006Z,6.10
2023-04-16T07:48:45.426Z,6.30
2023-04-16T07:51:12.369Z,6.40
2023-04-16T07:53:39.247Z,6.40
2023-04-16T07:56:06.448Z,6.50
2023-04-16T07:58:33.309Z,6.60
2023-04-16T08:01:00.455Z,6.70
2023-04-16T08:05:55.509Z,7.10
2023-04-16T08:08:22.486Z,6.60
2023-04-16T08:10:49.502Z,6.70
2023-04-16T08:13:16.408Z,6.60
2023-04-16T08:15:43.436Z,6.60
2023-04-16T08:18:15.520Z,6.50
2023-04-16T08:20:42.871Z,6.50
2023-04-16T08:23:09.843Z,6.50
2023-04-16T08:25:36.659Z,6.40
2023-04-16T08:28:03.591Z,6.60
2023-04-16T08:30:30.741Z,6.60
2023-04-16T08:32:57.775Z,6.60
2023-04-16T08:35:24.914Z,6.70
2023-04-16T08:37:51.763Z,6.80
2023-04-16T08:40:18.736Z,6.80
2023-04-16T08:42:55.889Z,6.90
2023-04-16T08:45:23.337Z,6.90
2023-04-16T08:47:52.220Z,6.90
2023-04-16T08:50:24.546Z,7.00
2023-04-16T08:53:00.119Z,7.00
2023-04-16T08:55:40.457Z,7.10
2023-04-16T08:58:13.627Z,7.10
2023-04-16T09:00:41.439Z,7.10
2023-04-16T09:03:10.915Z,7.20
2023-04-16T09:05:38.686Z,7.20
2023-04-16T09:08:06.887Z,7.30
2023-04-16T09:10:34.267Z,7.30
2023-04-16T09:13:01.788Z,7.20
2023-04-16T09:15:29.580Z,7.20
2023-04-16T09:17:57.765Z,7.20
2023-04-16T09:20:24.847Z,7.30
2023-04-16T09:22:51.858Z,7.30
2023-04-16T09:25:21.545Z,7.30
2023-04-16T09:27:51.281Z,7.40
2023-04-16T09:30:26.151Z,7.50
2023-04-16T09:33:16.577Z,7.60
2023-04-16T09:35:51.463Z,7.70
2023-04-16T09:38:19.350Z,7.80
2023-04-16T09:40:47.678Z,7.80
2023-04-16T09:43:16.842Z,8.00
2023-04-16T09:45:54.517Z,8.00
2023-04-16T09:48:31.963Z,8.00
2023-04-16T09:50:59.926Z,8.20
2023-04-16T09:53:31.777Z,8.20
2023-04-16T09:56:02.848Z,8.30
2023-04-16T09:58:29.904Z,8.40
2023-04-16T10:01:03.762Z,8.50
2023-04-16T10:03:32.321Z,8.60
2023-04-16T10:06:09.272Z,8.70
2023-04-16T10:08:36.436Z,8.80
2023-04-16T10:11:03.476Z,8.80
2023-04-16T10:13:31.326Z,8.70
2023-04-16T10:20:53.634Z,8.70
2023-04-16T10:23:22.027Z,8.80
2023-04-16T10:25:50.456Z,8.80
2023-04-16T10:28:17.633Z,8.90
2023-04-16T10:30:53.116Z,8.80
2023-04-16T10:33:27.349Z,8.80
2023-04-16T10:36:11.626Z,8.90
2023-04-16T10:38:41.110Z,8.80
2023-04-16T10:41:11.807Z,8.80
2023-04-16T10:43:44.342Z,8.80
2023-04-16T10:46:37.883Z,8.60
2023-04-16T10:49:15.302Z,8.40
2023-04-16T10:51:42.439Z,8.30
2023-04-16T10:54:09.404Z,8.30
2023-04-16T10:56:37.372Z,8.30
2023-04-16T10:59:06.808Z,8.30
2023-04-16T11:01:35.905Z,8.40
2023-04-16T11:04:25.654Z,8.40
2023-04-16T11:07:08.759Z,8.30
2023-04-16T11:09:59.691Z,8.30
2023-04-16T11:12:38.278Z,8.40
2023-04-16T11:15:08.798Z,8.50
2023-04-16T11:17:51.769Z,8.50
2023-04-16T11:20:21.525Z,8.60
2023-04-16T11:22:49.746Z,8.70
2023-04-16T11:25:34.833Z,8.70
2023-04-16T11:28:02.991Z,8.70
2023-04-16T11:30:39.937Z,8.80
2023-04-16T11:33:09.684Z,8.90
2023-04-16T11:35:36.762Z,8.90
2023-04-16T11:38:04.257Z,8.90
2023-04-16T11:40:31.886Z,8.80
2023-04-16T11:43:26.697Z,8.90
2023-04-16T11:46:03.723Z,8.90
2023-04-16T11:48:52.313Z,8.80
2023-04-16T11:51:20.736Z,8.90
2023-04-16T11:53:49.395Z,8.90
2023-04-16T11:56:17.614Z,8.90
2023-04-16T11:58:44.731Z,8.90
2023-04-16T12:01:11.940Z,8.90
2023-04-16T12:03:43.534Z,9.00
2023-04-16T12:06:10.907Z,8.90
2023-04-16T12:08:37.900Z,9.00
2023-04-16T12:11:04.943Z,9.00
2023-04-16T12:13:31.879Z,8.90
2023-04-16T12:15:58.729Z,8.80
2023-04-16T12:18:27.149Z,8.70
2023-04-16T12:20:54.309Z,8.70
2023-04-16T12:23:28.957Z,8.70
2023-04-16T12:25:56.773Z,8.70
2023-04-16T12:28:35.240Z,8.80
2023-04-16T12:31:03.063Z,8.80
2023-04-16T12:33:30.300Z,8.90
2023-04-16T12:35:57.588Z,8.90
2023-04-16T12:38:25.688Z,8.90
2023-04-16T12:40:56.853Z,8.90
2023-04-16T12:43:26.646Z,9.10
2023-04-16T12:45:53.759Z,9.20
2023-04-16T12:48:20.831Z,9.30
2023-04-16T12:50:48.211Z,9.30
2023-04-16T12:53:15.367Z,9.30
2023-04-16T12:55:42.263Z,9.20
2023-04-16T12:58:11.199Z,9.20
2023-04-16T13:00:39.993Z,9.20
2023-04-16T13:03:07.077Z,9.20
2023-04-16T13:05:34.538Z,9.40
2023-04-16T13:08:01.394Z,9.40
2023-04-16T13:10:28.302Z,9.40
2023-04-16T13:12:55.135Z,9.40
2023-04-16T13:15:22.024Z,9.50
2023-04-16T13:17:48.954Z,9.60
2023-04-16T13:20:18.446Z,9.60
2023-04-16T13:22:45.346Z,9.60
2023-04-16T13:25:12.282Z,9.60
2023-04-16T13:27:39.168Z,9.60
2023-04-16T13:30:06.646Z,9.70
2023-04-16T13:32:33.692Z,9.60
2023-04-16T13:35:00.942Z,9.60
2023-04-16T13:37:27.815Z,9.60
2023-04-16T13:39:54.699Z,9.40
2023-04-16T13:42:22.265Z,9.40
2023-04-16T13:44:53.150Z,9.30
2023-04-16T13:47:20.313Z,9.20
2023-04-16T13:49:47.665Z,9.20
2023-04-16T13:52:14.529Z,9.10
2023-04-16T13:54:41.645Z,9.10
2023-04-16T13:57:08.615Z,9.10
2023-04-16T13:59:35.685Z,9.10
2023-04-16T14:02:02.657Z,9.20
2023-04-16T14:04:29.620Z,9.30
2023-04-16T14:06:56.580Z,9.30
2023-04-16T14:09:23.620Z,9.30
2023-04-16T14:11:51.317Z,9.30
2023-04-16T14:14:18.320Z,9.20
2023-04-16T14:16:45.368Z,9.30
2023-04-16T14:19:13.274Z,9.30
2023-04-16T14:21:40.298Z,9.20
2023-04-16T14:24:09.246Z,9.10
2023-04-16T14:26:36.229Z,9.10
2023-04-16T14:29:03.241Z,9.20
2023-04-16T14:31:30.801Z,9.10
2023-04-16T14:33:58.002Z,9.20
2023-04-16T14:36:24.909Z,9.20
2023-04-16T14:38:51.894Z,9.00
2023-04-16T14:41:18.815Z,9.10
2023-04-16T14:43:45.817Z,9.10
2023-04-16T14:46:12.737Z,8.90
2023-04-16T14:48:39.632Z,9.00
2023-04-16T14:51:07.287Z,9.10
2023-04-16T14:53:36.187Z,9.10
2023-04-16T14:56:03.533Z,9.10
2023-04-16T14:58:31.242Z,9.10
2023-04-16T15:01:01.184Z,9.00
2023-04-16T15:03:28.491Z,9.00
2023-04-16T15:05:57.123Z,8.90
2023-04-16T15:08:24.436Z,8.90
2023-04-16T15:10:51.970Z,8.90
2023-04-16T15:15:46.542Z,9.00
2023-04-16T15:18:13.496Z,9.00
2023-04-16T15:20:40.409Z,9.10
2023-04-16T15:23:07.298Z,9.10
2023-04-16T15:25:34.340Z,9.10
2023-04-16T15:28:02.705Z,9.10
2023-04-16T15:30:31.146Z,9.10
2023-04-16T15:32:58.095Z,9.10
2023-04-16T15:35:24.995Z,9.10
2023-04-16T15:37:52.878Z,9.10
2023-04-16T15:40:20.633Z,9.00
2023-04-16T15:42:47.617Z,9.10
2023-04-16T15:45:14.495Z,9.10
2023-04-16T15:47:41.997Z,9.10
2023-04-16T15:50:09.310Z,9.00
2023-04-16T15:52:36.532Z,9.00
2023-04-16T15:55:04.326Z,9.00
2023-04-16T15:57:31.462Z,9.00
2023-04-16T16:02:29.920Z,8.80
2023-04-16T16:04:56.966Z,8.90
2023-04-16T16:07:25.265Z,8.80
2023-04-16T16:09:53.180Z,8.80
2023-04-16T16:12:20.040Z,8.90
2023-04-16T16:14:47.876Z,8.80
2023-04-16T16:17:14.980Z,8.90
2023-04-16T16:19:41.965Z,8.90
2023-04-16T16:22:10.326Z,8.90
2023-04-16T16:24:37.213Z,8.90
2023-04-16T16:27:04.292Z,8.80
2023-04-16T16:44:22.851Z,8.40
2023-04-16T16:51:56.008Z,8.30
2023-04-16T16:54:29.895Z,8.30
2023-04-16T17:06:53.814Z,8.20
2023-04-16T17:09:30.990Z,8.60
2023-04-16T17:15:04.178Z,8.10
2023-04-16T17:20:10.447Z,8.00
2023-04-16T17:22:58.148Z,8.00
2023-04-16T17:30:38.085Z,7.80
2023-04-16T17:35:39.612Z,7.70
2023-04-16T17:48:16.768Z,7.50
2023-04-16T17:55:56.968Z,7.40
2023-04-16T17:58:26.421Z,7.60
2023-04-16T18:03:24.090Z,7.50
2023-04-16T18:16:16.752Z,7.20
2023-04-16T18:58:48.187Z,6.90
2023-04-16T19:08:48.120Z,6.60
2023-04-16T19:13:48.375Z,6.60
2023-04-16T19:23:44.515Z,6.70
2023-04-16T19:28:42.643Z,6.70
2023-04-16T19:36:11.503Z,6.60
2023-04-16T19:43:37.213Z,6.60
2023-04-16T19:46:06.844Z,6.60
2023-04-16T19:58:28.578Z,6.50
2023-04-16T20:01:01.305Z,6.50
2023-04-16T20:03:28.523Z,6.50
2023-04-16T20:05:58.900Z,6.80
2023-04-16T20:08:34.084Z,6.50
2023-04-16T20:11:03.259Z,5.80
2023-04-16T20:13:30.513Z,6.40
2023-04-16T20:25:53.667Z,6.50
2023-04-16T20:35:47.568Z,6.30
2023-04-16T20:38:23.805Z,6.30
2023-04-16T20:41:06.469Z,6.30
2023-04-16T20:48:36.774Z,6.40
2023-04-16T20:51:09.622Z,6.40
2023-04-16T20:54:03.093Z,5.20
2023-04-16T20:56:36.080Z,8.50
2023-04-16T21:01:30.946Z,6.30
2023-04-16T21:04:03.344Z,6.30
2023-04-16T21:06:38.636Z,7.40
2023-04-16T21:09:09.701Z,6.30
2023-04-16T21:11:36.773Z,6.60
2023-04-16T21:14:04.615Z,6.50
2023-04-16T21:18:59.557Z,6.30
2023-04-16T21:21:29.479Z,6.30
2023-04-16T21:24:04.086Z,6.80
2023-04-16T21:26:31.064Z,6.30
2023-04-16T21:28:58.183Z,6.40
2023-04-16T21:31:25.332Z,6.40
2023-04-16T21:33:52.529Z,6.60
2023-04-16T21:36:19.523Z,6.50
2023-04-16T21:39:00.198Z,6.40
2023-04-16T21:41:27.832Z,6.30
2023-04-16T21:43:57.434Z,6.40
2023-04-16T21:46:27.939Z,6.20
2023-04-16T21:48:55.048Z,6.30
2023-04-16T21:51:29.211Z,6.30
2023-04-16T21:56:40.164Z,6.50
2023-04-16T21:59:07.345Z,6.00
2023-04-16T22:01:34.451Z,6.30
2023-04-16T22:04:07.821Z,6.30
2023-04-16T22:06:36.810Z,5.80
2023-04-16T22:09:08.166Z,6.40
2023-04-16T22:11:35.261Z,6.70
2023-04-16T22:14:11.275Z,6.30
2023-04-16T22:16:41.839Z,6.50
2023-04-16T22:19:08.904Z,3.80
2023-04-16T22:38:50.878Z,6.30
2023-04-16T22:46:15.727Z,6.20
2023-04-16T22:53:38.812Z,6.20
2023-04-16T22:58:39.075Z,6.10
2023-04-16T23:01:13.765Z,6.30
2023-04-16T23:08:37.664Z,6.10
2023-04-16T23:11:07.920Z,6.10
2023-04-16T23:13:37.931Z,6.10
2023-04-16T23:16:08.574Z,6.10
2023-04-16T23:18:38.632Z,6.10
2023-04-16T23:23:35.728Z,6.10
2023-04-16T23:26:02.973Z,6.20
2023-04-16T23:33:31.035Z,6.00
2023-04-16T23:43:25.785Z,6.00
2023-04-16T23:46:02.494Z,6.10
2023-04-16T23:48:33.113Z,6.20
2023-04-16T23:51:00.036Z,6.10
2023-04-16T23:55:57.421Z,6.10
2023-04-16T23:58:24.500Z,6.10
